sensor_id;sensor_type;location;lat;lon;timestamp;P1;durP1;ratioP1;P2;durP2;ratioP2
59314;SDS011;46521;50.160;20.802;2023-07-28T00:08:02;8.60;;;4.60;;
59314;SDS011;46521;50.160;20.802;2023-07-28T00:18:04;8.60;;;4.53;;
59314;SDS011;46521;50.160;20.802;2023-07-28T00:28:06;7.77;;;4.30;;
59314;SDS011;46521;50.160;20.802;2023-07-28T00:38:08;7.15;;;4.03;;
59314;SDS011;46521;50.160;20.802;2023-07-28T00:48:13;9.73;;;4.18;;
59314;SDS011;46521;50.160;20.802;2023-07-28T00:58:16;8.50;;;4.50;;
59314;SDS011;46521;50.160;20.802;2023-07-28T01:08:25;9.33;;;4.33;;
59314;SDS011;46521;50.160;20.802;2023-07-28T01:18:34;7.38;;;3.83;;
59314;SDS011;46521;50.160;20.802;2023-07-28T01:28:36;8.60;;;4.15;;
59314;SDS011;46521;50.160;20.802;2023-07-28T01:38:38;7.63;;;3.90;;
59314;SDS011;46521;50.160;20.802;2023-07-28T01:48:40;7.60;;;4.00;;
59314;SDS011;46521;50.160;20.802;2023-07-28T01:58:41;7.55;;;3.20;;
59314;SDS011;46521;50.160;20.802;2023-07-28T02:08:42;7.00;;;3.60;;
59314;SDS011;46521;50.160;20.802;2023-07-28T02:18:44;7.80;;;3.20;;
59314;SDS011;46521;50.160;20.802;2023-07-28T02:28:45;7.45;;;3.45;;
59314;SDS011;46521;50.160;20.802;2023-07-28T02:38:47;9.20;;;3.60;;
59314;SDS011;46521;50.160;20.802;2023-07-28T02:48:48;8.05;;;3.65;;
59314;SDS011;46521;50.160;20.802;2023-07-28T02:58:50;7.37;;;3.70;;
59314;SDS011;46521;50.160;20.802;2023-07-28T03:08:51;7.40;;;3.85;;
59314;SDS011;46521;50.160;20.802;2023-07-28T03:18:53;7.68;;;3.80;;
59314;SDS011;46521;50.160;20.802;2023-07-28T03:28:54;7.60;;;3.20;;
59314;SDS011;46521;50.160;20.802;2023-07-28T03:38:56;5.90;;;3.00;;
59314;SDS011;46521;50.160;20.802;2023-07-28T03:48:58;6.40;;;2.90;;
59314;SDS011;46521;50.160;20.802;2023-07-28T03:59:00;7.30;;;3.08;;
59314;SDS011;46521;50.160;20.802;2023-07-28T04:09:02;9.10;;;3.85;;
59314;SDS011;46521;50.160;20.802;2023-07-28T04:19:03;6.60;;;3.47;;
59314;SDS011;46521;50.160;20.802;2023-07-28T04:29:05;7.10;;;3.00;;
59314;SDS011;46521;50.160;20.802;2023-07-28T04:39:06;7.75;;;3.08;;
59314;SDS011;46521;50.160;20.802;2023-07-28T04:49:08;5.80;;;2.95;;
59314;SDS011;46521;50.160;20.802;2023-07-28T04:59:10;7.17;;;2.87;;
59314;SDS011;46521;50.160;20.802;2023-07-28T05:09:11;7.17;;;3.10;;
59314;SDS011;46521;50.160;20.802;2023-07-28T05:19:12;8.80;;;3.30;;
59314;SDS011;46521;50.160;20.802;2023-07-28T05:29:14;6.07;;;2.97;;
59314;SDS011;46521;50.160;20.802;2023-07-28T05:39:15;6.50;;;2.70;;
59314;SDS011;46521;50.160;20.802;2023-07-28T05:49:17;5.50;;;2.50;;
59314;SDS011;46521;50.160;20.802;2023-07-28T05:59:18;5.85;;;2.65;;
59314;SDS011;46521;50.160;20.802;2023-07-28T06:09:20;4.80;;;2.38;;
59314;SDS011;46521;50.160;20.802;2023-07-28T06:19:21;5.40;;;2.40;;
59314;SDS011;46521;50.160;20.802;2023-07-28T06:29:24;6.40;;;2.25;;
59314;SDS011;46521;50.160;20.802;2023-07-28T06:39:26;6.53;;;2.63;;
59314;SDS011;46521;50.160;20.802;2023-07-28T06:49:28;6.10;;;2.80;;
59314;SDS011;46521;50.160;20.802;2023-07-28T06:59:29;5.30;;;2.30;;
59314;SDS011;46521;50.160;20.802;2023-07-28T07:09:31;7.60;;;2.40;;
59314;SDS011;46521;50.160;20.802;2023-07-28T07:19:32;6.93;;;2.40;;
59314;SDS011;46521;50.160;20.802;2023-07-28T07:29:34;5.60;;;2.60;;
59314;SDS011;46521;50.160;20.802;2023-07-28T07:39:35;6.93;;;2.60;;
59314;SDS011;46521;50.160;20.802;2023-07-28T07:49:37;6.13;;;2.77;;
59314;SDS011;46521;50.160;20.802;2023-07-28T07:59:38;6.20;;;3.10;;
59314;SDS011;46521;50.160;20.802;2023-07-28T08:09:40;6.20;;;2.85;;
59314;SDS011;46521;50.160;20.802;2023-07-28T08:19:41;5.37;;;2.70;;
59314;SDS011;46521;50.160;20.802;2023-07-28T08:29:43;5.90;;;2.80;;
59314;SDS011;46521;50.160;20.802;2023-07-28T08:39:45;6.20;;;3.05;;
59314;SDS011;46521;50.160;20.802;2023-07-28T08:49:46;6.30;;;2.80;;
59314;SDS011;46521;50.160;20.802;2023-07-28T08:59:48;6.70;;;2.90;;
59314;SDS011;46521;50.160;20.802;2023-07-28T09:09:50;6.53;;;2.68;;
59314;SDS011;46521;50.160;20.802;2023-07-28T09:20:01;6.27;;;2.60;;
59314;SDS011;46521;50.160;20.802;2023-07-28T09:30:03;6.30;;;2.80;;
59314;SDS011;46521;50.160;20.802;2023-07-28T09:40:09;7.10;;;2.90;;
59314;SDS011;46521;50.160;20.802;2023-07-28T09:50:15;7.15;;;3.00;;
59314;SDS011;46521;50.160;20.802;2023-07-28T10:00:18;6.15;;;2.98;;
59314;SDS011;46521;50.160;20.802;2023-07-28T10:10:22;6.67;;;2.53;;
59314;SDS011;46521;50.160;20.802;2023-07-28T10:20:31;6.07;;;2.50;;
59314;SDS011;46521;50.160;20.802;2023-07-28T10:30:50;5.20;;;2.33;;
59314;SDS011;46521;50.160;20.802;2023-07-28T10:40:53;5.10;;;2.07;;
59314;SDS011;46521;50.160;20.802;2023-07-28T10:51:06;6.10;;;2.55;;
59314;SDS011;46521;50.160;20.802;2023-07-28T11:01:07;5.63;;;2.15;;
59314;SDS011;46521;50.160;20.802;2023-07-28T11:11:09;5.38;;;2.10;;
59314;SDS011;46521;50.160;20.802;2023-07-28T11:21:11;7.00;;;2.70;;
59314;SDS011;46521;50.160;20.802;2023-07-28T11:31:12;5.85;;;2.20;;
59314;SDS011;46521;50.160;20.802;2023-07-28T11:41:14;6.63;;;2.43;;
59314;SDS011;46521;50.160;20.802;2023-07-28T11:51:16;6.05;;;2.35;;
59314;SDS011;46521;50.160;20.802;2023-07-28T12:01:17;5.50;;;2.30;;
59314;SDS011;46521;50.160;20.802;2023-07-28T12:11:20;4.80;;;2.17;;
59314;SDS011;46521;50.160;20.802;2023-07-28T12:21:24;5.70;;;1.83;;
59314;SDS011;46521;50.160;20.802;2023-07-28T12:31:26;3.97;;;1.50;;
59314;SDS011;46521;50.160;20.802;2023-07-28T12:41:27;2.93;;;1.27;;
59314;SDS011;46521;50.160;20.802;2023-07-28T12:51:29;2.95;;;1.10;;
59314;SDS011;46521;50.160;20.802;2023-07-28T13:01:31;1.73;;;1.00;;
59314;SDS011;46521;50.160;20.802;2023-07-28T13:11:32;1.40;;;0.90;;
59314;SDS011;46521;50.160;20.802;2023-07-28T13:21:33;3.58;;;1.10;;
59314;SDS011;46521;50.160;20.802;2023-07-28T13:31:35;2.60;;;1.00;;
59314;SDS011;46521;50.160;20.802;2023-07-28T13:41:37;2.50;;;1.20;;
59314;SDS011;46521;50.160;20.802;2023-07-28T13:51:38;4.13;;;1.30;;
59314;SDS011;46521;50.160;20.802;2023-07-28T14:01:40;3.10;;;1.30;;
59314;SDS011;46521;50.160;20.802;2023-07-28T14:11:41;2.50;;;1.10;;
59314;SDS011;46521;50.160;20.802;2023-07-28T14:21:43;3.40;;;1.27;;
59314;SDS011;46521;50.160;20.802;2023-07-28T14:31:44;3.25;;;1.40;;
59314;SDS011;46521;50.160;20.802;2023-07-28T14:41:46;2.63;;;1.20;;
59314;SDS011;46521;50.160;20.802;2023-07-28T14:51:47;2.80;;;1.40;;
59314;SDS011;46521;50.160;20.802;2023-07-28T15:01:49;1.73;;;1.00;;
59314;SDS011;46521;50.160;20.802;2023-07-28T15:11:50;2.85;;;1.10;;
59314;SDS011;46521;50.160;20.802;2023-07-28T15:21:51;2.20;;;0.95;;
59314;SDS011;46521;50.160;20.802;2023-07-28T15:31:53;1.85;;;1.00;;
59314;SDS011;46521;50.160;20.802;2023-07-28T15:41:55;2.25;;;0.95;;
59314;SDS011;46521;50.160;20.802;2023-07-28T15:51:57;1.80;;;0.90;;
59314;SDS011;46521;50.160;20.802;2023-07-28T16:01:58;1.90;;;0.90;;
59314;SDS011;46521;50.160;20.802;2023-07-28T16:12:00;1.73;;;0.90;;
59314;SDS011;46521;50.160;20.802;2023-07-28T16:22:01;2.80;;;1.00;;
59314;SDS011;46521;50.160;20.802;2023-07-28T16:32:03;2.55;;;1.10;;
59314;SDS011;46521;50.160;20.802;2023-07-28T16:42:07;1.60;;;0.90;;
59314;SDS011;46521;50.160;20.802;2023-07-28T16:52:09;2.55;;;0.90;;
59314;SDS011;46521;50.160;20.802;2023-07-28T17:02:11;3.20;;;1.10;;
59314;SDS011;46521;50.160;20.802;2023-07-28T17:12:12;2.40;;;1.00;;
59314;SDS011;46521;50.160;20.802;2023-07-28T17:22:14;9.27;;;1.53;;
59314;SDS011;46521;50.160;20.802;2023-07-28T17:32:15;2.85;;;1.10;;
59314;SDS011;46521;50.160;20.802;2023-07-28T17:42:17;2.07;;;0.90;;
59314;SDS011;46521;50.160;20.802;2023-07-28T17:52:20;5.75;;;1.30;;
59314;SDS011;46521;50.160;20.802;2023-07-28T18:02:21;4.75;;;1.40;;
59314;SDS011;46521;50.160;20.802;2023-07-28T18:12:22;4.55;;;1.25;;
59314;SDS011;46521;50.160;20.802;2023-07-28T18:22:24;3.20;;;1.30;;
59314;SDS011;46521;50.160;20.802;2023-07-28T18:32:25;4.50;;;2.20;;
59314;SDS011;46521;50.160;20.802;2023-07-28T18:42:27;5.70;;;2.27;;
59314;SDS011;46521;50.160;20.802;2023-07-28T18:52:29;5.03;;;1.97;;
59314;SDS011;46521;50.160;20.802;2023-07-28T19:02:30;4.70;;;2.30;;
59314;SDS011;46521;50.160;20.802;2023-07-28T19:12:31;4.28;;;1.80;;
59314;SDS011;46521;50.160;20.802;2023-07-28T19:22:33;4.67;;;2.30;;
59314;SDS011;46521;50.160;20.802;2023-07-28T19:32:35;5.00;;;2.30;;
59314;SDS011;46521;50.160;20.802;2023-07-28T19:42:36;5.77;;;2.37;;
59314;SDS011;46521;50.160;20.802;2023-07-28T19:52:38;7.00;;;2.60;;
59314;SDS011;46521;50.160;20.802;2023-07-28T20:02:40;6.10;;;3.10;;
59314;SDS011;46521;50.160;20.802;2023-07-28T20:12:42;5.87;;;2.80;;
59314;SDS011;46521;50.160;20.802;2023-07-28T20:22:43;5.95;;;2.55;;
59314;SDS011;46521;50.160;20.802;2023-07-28T20:32:46;7.43;;;2.93;;
59314;SDS011;46521;50.160;20.802;2023-07-28T20:42:48;6.57;;;3.10;;
59314;SDS011;46521;50.160;20.802;2023-07-28T20:52:49;6.78;;;2.95;;
59314;SDS011;46521;50.160;20.802;2023-07-28T21:02:51;7.20;;;3.20;;
59314;SDS011;46521;50.160;20.802;2023-07-28T21:12:52;6.00;;;3.00;;
59314;SDS011;46521;50.160;20.802;2023-07-28T21:22:54;7.13;;;3.43;;
59314;SDS011;46521;50.160;20.802;2023-07-28T21:33:02;7.25;;;3.23;;
59314;SDS011;46521;50.160;20.802;2023-07-28T21:43:05;7.10;;;3.50;;
59314;SDS011;46521;50.160;20.802;2023-07-28T21:53:06;10.63;;;4.10;;
59314;SDS011;46521;50.160;20.802;2023-07-28T22:03:08;7.70;;;3.30;;
59314;SDS011;46521;50.160;20.802;2023-07-28T22:13:09;8.13;;;3.83;;
59314;SDS011;46521;50.160;20.802;2023-07-28T22:23:11;7.30;;;3.10;;
59314;SDS011;46521;50.160;20.802;2023-07-28T22:33:13;8.00;;;3.60;;
59314;SDS011;46521;50.160;20.802;2023-07-28T22:43:15;6.40;;;3.35;;
59314;SDS011;46521;50.160;20.802;2023-07-28T22:53:16;8.03;;;4.00;;
59314;SDS011;46521;50.160;20.802;2023-07-28T23:03:18;7.75;;;3.75;;
59314;SDS011;46521;50.160;20.802;2023-07-28T23:13:20;7.95;;;3.70;;
59314;SDS011;46521;50.160;20.802;2023-07-28T23:23:22;7.70;;;3.65;;
59314;SDS011;46521;50.160;20.802;2023-07-28T23:33:24;6.73;;;3.40;;
59314;SDS011;46521;50.160;20.802;2023-07-28T23:43:25;6.65;;;3.18;;
